createdAt,value
2023-05-06T00:00:22.908Z,43.72
2023-05-06T00:05:30.337Z,43.81
2023-05-06T00:10:37.617Z,43.90
2023-05-06T00:15:44.870Z,43.99
2023-05-06T00:20:52.711Z,44.12
2023-05-06T00:25:59.867Z,44.25
2023-05-06T00:31:07.480Z,44.40
2023-05-06T00:36:15.214Z,44.58
2023-05-06T00:41:22.429Z,44.78
2023-05-06T00:46:29.695Z,44.96
2023-05-06T00:51:37.192Z,45.16
2023-05-06T00:56:44.992Z,45.37
2023-05-06T01:01:54.410Z,45.57
2023-05-06T01:07:10.288Z,45.78
2023-05-06T01:12:23.238Z,45.98
2023-05-06T01:17:32.402Z,46.22
2023-05-06T01:22:40.954Z,46.48
2023-05-06T01:27:48.087Z,46.73
2023-05-06T01:33:05.176Z,46.95
2023-05-06T01:38:24.672Z,47.11
2023-05-06T01:43:35.929Z,47.31
2023-05-06T01:48:44.901Z,47.52
2023-05-06T01:53:52.218Z,47.73
2023-05-06T01:59:00.074Z,47.90
2023-05-06T02:04:07.463Z,48.07
2023-05-06T02:09:14.765Z,48.23
2023-05-06T02:14:25.160Z,48.38
2023-05-06T02:19:32.890Z,48.55
2023-05-06T02:24:40.393Z,48.73
2023-05-06T02:29:47.869Z,48.88
2023-05-06T02:34:55.206Z,49.02
2023-05-06T02:40:02.670Z,49.17
2023-05-06T02:45:13.804Z,49.32
2023-05-06T02:50:21.335Z,49.45
2023-05-06T02:55:28.621Z,49.58
2023-05-06T03:00:35.799Z,49.68
2023-05-06T03:05:43.102Z,49.78
2023-05-06T03:10:50.795Z,49.91
2023-05-06T03:15:58.501Z,50.05
2023-05-06T03:21:06.418Z,50.15
2023-05-06T03:26:15.336Z,50.25
2023-05-06T03:31:22.819Z,50.37
2023-05-06T03:36:32.084Z,50.43
2023-05-06T03:41:39.673Z,50.48
2023-05-06T03:46:47.628Z,50.53
2023-05-06T03:51:55.785Z,50.59
2023-05-06T03:57:03.519Z,50.62
2023-05-06T04:02:11.443Z,50.62
2023-05-06T04:07:18.950Z,50.64
2023-05-06T04:12:26.472Z,50.64
2023-05-06T04:17:33.877Z,50.66
2023-05-06T04:22:41.759Z,50.66
2023-05-06T04:29:45.478Z,50.66
2023-05-06T04:35:24.008Z,51.41
2023-05-06T04:40:36.899Z,51.18
2023-05-06T04:45:49.878Z,50.98
2023-05-06T04:51:00.654Z,50.90
2023-05-06T04:56:09.210Z,50.80
2023-05-06T05:01:17.214Z,50.76
2023-05-06T05:06:24.739Z,50.65
2023-05-06T05:11:33.276Z,50.59
2023-05-06T05:16:40.820Z,50.46
2023-05-06T05:21:48.794Z,50.33
2023-05-06T05:26:56.480Z,50.35
2023-05-06T05:32:04.069Z,50.30
2023-05-06T05:37:11.952Z,50.29
2023-05-06T05:42:19.728Z,50.32
2023-05-06T05:47:27.984Z,50.28
2023-05-06T05:52:35.454Z,50.13
2023-05-06T05:57:43.256Z,50.08
2023-05-06T06:02:51.283Z,50.02
2023-05-06T06:08:02.985Z,50.09
2023-05-06T06:13:11.446Z,50.07
2023-05-06T06:18:18.767Z,49.94
2023-05-06T06:23:26.720Z,49.72
2023-05-06T06:28:34.199Z,49.54
2023-05-06T06:33:41.952Z,49.45
2023-05-06T06:38:49.248Z,49.25
2023-05-06T06:43:56.803Z,49.11
2023-05-06T06:49:05.975Z,49.04
2023-05-06T06:54:13.206Z,49.06
2023-05-06T06:59:20.373Z,49.04
2023-05-06T07:04:27.793Z,48.86
2023-05-06T07:09:35.791Z,48.55
2023-05-06T07:14:43.202Z,48.22
2023-05-06T07:19:50.462Z,48.00
2023-05-06T07:24:57.741Z,47.52
2023-05-06T07:30:05.249Z,47.10
2023-05-06T07:35:13.343Z,47.06
2023-05-06T07:40:20.564Z,47.08
2023-05-06T07:45:27.927Z,46.89
2023-05-06T07:50:35.348Z,46.76
2023-05-06T07:55:42.798Z,46.70
2023-05-06T08:00:49.994Z,46.57
2023-05-06T08:05:57.234Z,46.53
2023-05-06T08:11:04.638Z,46.27
2023-05-06T08:16:12.188Z,46.25
2023-05-06T08:21:19.588Z,46.36
2023-05-06T08:26:27.007Z,46.41
2023-05-06T08:31:34.262Z,46.39
2023-05-06T08:36:41.832Z,46.34
2023-05-06T08:41:52.270Z,46.30
2023-05-06T08:47:00.639Z,46.37
2023-05-06T08:52:09.423Z,46.37
2023-05-06T08:57:17.746Z,46.33
2023-05-06T09:02:25.908Z,46.51
2023-05-06T09:07:33.209Z,46.33
2023-05-06T09:12:42.810Z,46.15
2023-05-06T09:17:50.062Z,46.12
2023-05-06T09:22:57.301Z,46.16
2023-05-06T09:28:11.972Z,46.12
2023-05-06T09:33:19.107Z,46.04
2023-05-06T09:38:26.534Z,45.89
2023-05-06T09:43:35.041Z,45.88
2023-05-06T09:48:42.906Z,46.01
2023-05-06T09:53:50.359Z,46.11
2023-05-06T09:59:01.676Z,46.07
2023-05-06T10:04:10.504Z,46.13
2023-05-06T10:09:19.303Z,46.07
2023-05-06T10:14:27.115Z,46.00
2023-05-06T10:19:35.783Z,45.83
2023-05-06T10:24:53.995Z,45.80
2023-05-06T10:30:02.533Z,45.81
2023-05-06T10:35:17.870Z,45.67
2023-05-06T10:40:26.942Z,45.46
2023-05-06T10:46:03.793Z,45.36
2023-05-06T10:51:30.439Z,45.35
2023-05-06T10:56:39.192Z,45.30
2023-05-06T11:01:46.742Z,45.04
2023-05-06T11:06:55.022Z,44.78
2023-05-06T11:12:06.278Z,44.58
2023-05-06T11:17:33.308Z,44.55
2023-05-06T11:22:44.016Z,44.49
2023-05-06T11:27:51.128Z,44.31
2023-05-06T11:33:03.868Z,44.29
2023-05-06T11:38:12.355Z,44.00
2023-05-06T11:43:20.226Z,44.03
2023-05-06T11:48:27.337Z,44.00
2023-05-06T11:53:34.388Z,43.63
2023-05-06T11:58:41.580Z,43.46
2023-05-06T12:03:48.990Z,43.18
2023-05-06T12:08:56.454Z,42.92
2023-05-06T12:14:03.910Z,42.71
2023-05-06T12:19:11.311Z,42.52
2023-05-06T12:24:28.412Z,42.44
2023-05-06T12:29:35.810Z,42.27
2023-05-06T12:34:43.392Z,42.12
2023-05-06T12:39:50.709Z,42.17
2023-05-06T12:44:58.350Z,42.06
2023-05-06T12:50:05.821Z,41.92
2023-05-06T12:55:13.689Z,41.66
2023-05-06T13:00:22.210Z,41.41
2023-05-06T13:05:29.534Z,41.27
2023-05-06T13:10:37.365Z,41.16
2023-05-06T13:15:44.880Z,40.95
2023-05-06T13:20:52.553Z,40.92
2023-05-06T13:26:04.751Z,40.98
2023-05-06T13:31:13.197Z,40.85
2023-05-06T13:36:20.493Z,40.76
2023-05-06T13:41:27.828Z,40.48
2023-05-06T13:46:35.387Z,40.67
2023-05-06T13:51:42.997Z,40.75
2023-05-06T13:56:50.308Z,40.83
2023-05-06T14:01:57.749Z,40.66
2023-05-06T14:07:04.988Z,40.49
2023-05-06T14:12:12.377Z,40.28
2023-05-06T14:17:19.668Z,40.17
2023-05-06T14:22:26.986Z,40.05
2023-05-06T14:27:34.185Z,39.94
2023-05-06T14:32:41.406Z,39.83
2023-05-06T14:37:48.823Z,39.66
2023-05-06T14:42:56.114Z,39.56
2023-05-06T14:48:03.849Z,39.47
2023-05-06T14:53:11.270Z,39.53
2023-05-06T14:58:18.501Z,39.44
2023-05-06T15:03:25.947Z,39.52
2023-05-06T15:08:33.264Z,39.46
2023-05-06T15:13:40.512Z,39.50
2023-05-06T15:18:47.941Z,39.60
2023-05-06T15:23:56.629Z,39.66
2023-05-06T15:29:03.841Z,39.50
2023-05-06T15:34:12.507Z,39.46
2023-05-06T15:39:19.875Z,39.38
2023-05-06T15:44:27.324Z,39.34
2023-05-06T15:49:52.066Z,39.30
2023-05-06T15:55:02.072Z,39.44
2023-05-06T16:00:12.718Z,39.50
2023-05-06T16:05:20.297Z,39.54
2023-05-06T16:10:27.615Z,39.49
2023-05-06T16:15:35.799Z,39.45
2023-05-06T16:20:42.996Z,39.53
2023-05-06T16:25:50.210Z,39.58
2023-05-06T16:30:57.395Z,39.45
2023-05-06T16:36:04.793Z,39.43
2023-05-06T16:41:11.992Z,39.43
2023-05-06T16:46:19.658Z,39.46
2023-05-06T16:51:28.018Z,39.40
2023-05-06T16:56:48.079Z,39.27
2023-05-06T17:01:58.307Z,39.26
2023-05-06T17:07:06.035Z,39.11
2023-05-06T17:12:13.276Z,39.09
2023-05-06T17:17:21.716Z,39.04
2023-05-06T17:22:29.493Z,38.99
2023-05-06T17:27:36.729Z,39.03
2023-05-06T17:32:44.324Z,39.02
2023-05-06T17:37:51.839Z,38.98
2023-05-06T17:42:59.042Z,38.97
2023-05-06T17:48:06.490Z,38.96
2023-05-06T17:53:14.073Z,38.93
2023-05-06T17:58:21.848Z,38.90
2023-05-06T18:03:29.280Z,38.85
2023-05-06T18:08:36.403Z,38.83
2023-05-06T18:13:43.594Z,38.89
2023-05-06T18:18:50.748Z,38.91
2023-05-06T18:24:10.335Z,38.97
2023-05-06T18:29:22.958Z,39.06
2023-05-06T18:34:30.221Z,39.10
2023-05-06T18:39:41.019Z,39.20
2023-05-06T18:44:50.614Z,39.35
2023-05-06T18:49:58.065Z,39.49
2023-05-06T18:55:05.768Z,39.65
2023-05-06T19:00:14.708Z,39.84
2023-05-06T19:05:22.077Z,40.01
2023-05-06T19:10:29.358Z,40.15
2023-05-06T19:15:36.959Z,40.31
2023-05-06T19:20:44.216Z,40.49
2023-05-06T19:25:51.519Z,40.63
2023-05-06T19:30:58.882Z,40.79
2023-05-06T19:36:06.938Z,40.94
2023-05-06T19:41:14.324Z,41.07
2023-05-06T19:46:21.793Z,41.20
2023-05-06T19:51:29.200Z,41.31
2023-05-06T19:56:36.768Z,41.37
2023-05-06T20:01:44.156Z,41.44
2023-05-06T20:06:51.415Z,41.53
2023-05-06T20:11:59.009Z,41.61
2023-05-06T20:17:06.210Z,41.69
2023-05-06T20:22:13.492Z,41.78
2023-05-06T20:27:21.400Z,41.86
2023-05-06T20:32:28.822Z,41.92
2023-05-06T20:37:37.466Z,41.97
2023-05-06T20:42:44.646Z,42.08
2023-05-06T20:47:52.218Z,42.17
2023-05-06T20:52:59.372Z,42.20
2023-05-06T20:58:07.305Z,42.25
2023-05-06T21:03:14.775Z,42.32
2023-05-06T21:08:22.345Z,42.37
2023-05-06T21:13:29.887Z,42.43
2023-05-06T21:18:37.578Z,42.52
2023-05-06T21:23:45.079Z,42.60
2023-05-06T21:28:52.945Z,42.65
2023-05-06T21:34:02.233Z,42.75
2023-05-06T21:39:13.310Z,42.84
2023-05-06T21:44:21.165Z,42.93
2023-05-06T21:49:28.417Z,43.04
2023-05-06T21:54:35.897Z,43.13
2023-05-06T21:59:43.759Z,43.21
2023-05-06T22:04:50.941Z,43.28
2023-05-06T22:09:58.223Z,43.37
2023-05-06T22:15:05.756Z,43.48
2023-05-06T22:20:15.633Z,43.53
2023-05-06T22:25:23.558Z,43.60
2023-05-06T22:30:31.024Z,43.69
2023-05-06T22:35:38.551Z,43.78
2023-05-06T22:40:45.862Z,43.84
2023-05-06T22:45:53.505Z,43.88
2023-05-06T22:51:01.693Z,43.93
2023-05-06T22:56:09.491Z,44.01
2023-05-06T23:01:17.019Z,44.09
2023-05-06T23:06:24.448Z,44.17
2023-05-06T23:11:32.048Z,44.24
2023-05-06T23:16:39.454Z,44.33
2023-05-06T23:21:47.751Z,44.40
2023-05-06T23:26:54.906Z,44.48
2023-05-06T23:32:02.063Z,44.55
2023-05-06T23:37:10.249Z,44.64
2023-05-06T23:42:17.993Z,44.71
2023-05-06T23:47:26.009Z,44.78
2023-05-06T23:52:33.489Z,44.84
2023-05-06T23:57:40.648Z,44.91
